Time;durP1;ratioP1;P1;durP2;ratioP2;P2;SDS_P1;SDS_P2;PMS_P1;PMS_P2;Temp;Humidity;BMP_temperature;BMP_pressure;BME280_temperature;BME280_humidity;BME280_pressure;Samples;Min_cycle;Max_cycle;Signal;HPM_P1;HPM_P2
2022/01/19 00:01:48;;;;;;;4.13;1.60;;;;;;;25.18;31.52;95435.06;4984934;28;20062;-59
2022/01/19 00:04:13;;;;;;;5.82;1.77;;;;;;;25.22;31.22;95417.50;4998142;28;20049;-59
2022/01/19 00:06:38;;;;;;;6.15;2.00;;;;;;;25.19;31.17;95407.41;5007884;28;20033;-59
2022/01/19 00:09:14;;;;;;;4.72;1.70;;;;;;;25.07;31.49;95396.97;5006774;28;20088;-59
2022/01/19 00:11:40;;;;;;;3.40;1.75;;;;;;;25.16;31.18;95394.59;4998035;28;20042;-59
2022/01/19 00:14:06;;;;;;;6.20;2.03;;;;;;;25.15;31.22;95390.34;5006705;28;20042;-59
2022/01/19 00:16:31;;;;;;;2.63;1.80;;;;;;;25.20;30.99;95397.53;5004181;28;20041;-59
2022/01/19 00:18:56;;;;;;;6.65;2.15;;;;;;;25.19;31.34;95396.75;4990910;28;20034;-59
2022/01/19 00:21:22;;;;;;;6.68;1.83;;;;;;;25.20;30.99;95401.00;4988743;28;20042;-59
2022/01/19 00:23:52;;;;;;;8.02;2.08;;;;;;;25.15;31.36;95414.28;4995017;28;20038;-59
2022/01/19 00:26:23;;;;;;;8.68;2.10;;;;;;;25.11;31.21;95413.22;5001833;28;20057;-59
2022/01/19 00:28:50;;;;;;;6.97;1.90;;;;;;;25.10;30.99;95414.31;4991331;28;20038;-59
2022/01/19 00:31:16;;;;;;;9.07;2.17;;;;;;;25.17;31.19;95428.16;4991291;28;20097;-59
2022/01/19 00:33:44;;;;;;;8.60;2.13;;;;;;;25.15;30.88;95431.09;5013443;28;20042;-59
2022/01/19 00:36:16;;;;;;;9.10;2.20;;;;;;;25.16;31.34;95422.00;4994546;28;20038;-59
2022/01/19 00:38:44;;;;;;;9.98;2.15;;;;;;;25.18;31.01;95414.56;5004414;28;20088;-59
2022/01/19 00:41:21;;;;;;;9.75;2.47;;;;;;;25.15;31.25;95403.66;4993726;28;20041;-59
2022/01/19 00:43:46;;;;;;;8.32;2.00;;;;;;;25.14;31.27;95397.53;4989547;28;20117;-59
2022/01/19 00:46:13;;;;;;;9.35;2.17;;;;;;;25.09;30.90;95396.72;4988075;28;20065;-59
2022/01/19 00:48:41;;;;;;;9.25;2.10;;;;;;;25.18;30.96;95389.81;5007657;28;20045;-59
2022/01/19 00:51:07;;;;;;;9.70;2.33;;;;;;;25.14;31.12;95391.41;4988152;28;20045;-59
2022/01/19 00:53:37;;;;;;;13.75;2.45;;;;;;;25.11;30.99;95389.28;5001263;28;20042;-59
2022/01/19 00:56:13;;;;;;;9.23;2.10;;;;;;;25.13;30.89;95395.94;5007654;28;20041;-59
2022/01/19 00:58:41;;;;;;;8.13;2.33;;;;;;;25.13;31.39;95395.94;4994390;28;20046;-59
2022/01/19 01:01:12;;;;;;;11.27;2.30;;;;;;;25.12;31.23;95398.88;4989716;28;20038;-59
2022/01/19 01:03:38;;;;;;;13.65;2.35;;;;;;;25.12;31.16;95393.53;5007168;28;20061;-59
2022/01/19 01:06:06;;;;;;;13.48;2.25;;;;;;;25.14;31.05;95397.53;4995546;28;20062;-59
2022/01/19 01:08:31;;;;;;;10.05;2.13;;;;;;;25.15;31.06;95387.66;5001217;28;20313;-59
2022/01/19 01:11:06;;;;;;;7.63;2.03;;;;;;;25.11;31.43;95375.97;4994851;28;20065;-59
2022/01/19 01:16:39;;;;;;;9.40;1.93;;;;;;;25.18;30.96;95373.84;5003891;28;20054;-59
2022/01/19 01:19:21;;;;;;;6.30;2.47;;;;;;;25.14;30.90;95364.81;4999406;28;20279;-59
2022/01/19 01:21:47;;;;;;;6.65;1.95;;;;;;;25.11;30.99;95354.69;5004603;28;20116;-59
2022/01/19 01:24:14;;;;;;;6.72;2.17;;;;;;;25.10;31.13;95343.25;4988645;28;20061;-59
2022/01/19 01:26:39;;;;;;;8.27;2.17;;;;;;;25.11;31.17;95347.50;4988030;28;20175;-59
2022/01/19 01:29:05;;;;;;;11.48;2.42;;;;;;;25.12;30.92;95358.94;4987431;28;20060;-59
2022/01/19 01:31:30;;;;;;;7.50;2.10;;;;;;;25.14;30.98;95372.78;4970135;28;20045;-59
2022/01/19 01:33:59;;;;;;;5.95;1.98;;;;;;;25.13;31.35;95376.50;5003737;28;20065;-59
2022/01/19 01:36:24;;;;;;;8.57;2.40;;;;;;;25.14;31.06;95394.06;5004877;28;20152;-59
2022/01/19 01:38:52;;;;;;;7.30;1.98;;;;;;;25.12;30.97;95391.69;5003103;28;20064;-59
2022/01/19 01:41:21;;;;;;;10.13;2.40;;;;;;;25.13;31.06;95376.50;5005100;28;20049;-59
2022/01/19 01:43:46;;;;;;;11.10;2.33;;;;;;;25.13;31.29;95379.16;5004543;28;20045;-59
2022/01/19 01:46:33;;;;;;;14.15;2.45;;;;;;;25.14;30.92;95372.78;4995017;28;20038;-59
2022/01/19 01:49:17;;;;;;;10.38;2.42;;;;;;;25.16;31.01;95365.31;4972345;28;20045;-59
2022/01/19 01:54:29;;;;;;;12.20;2.58;;;;;;;25.12;31.12;95349.09;4968817;28;20041;-59
2022/01/19 01:57:13;;;;;;;7.13;2.05;;;;;;;25.14;31.17;95354.16;4958344;28;20076;-59
2022/01/19 01:59:38;;;;;;;13.55;2.47;;;;;;;25.13;31.35;95352.53;4968819;28;20050;-59
2022/01/19 02:02:14;;;;;;;11.00;2.53;;;;;;;25.10;31.07;95337.13;4984929;28;20137;-59
2022/01/19 02:04:41;;;;;;;7.93;2.17;;;;;;;25.10;31.28;95329.94;4968710;28;20046;-59
2022/01/19 02:07:31;;;;;;;11.55;2.75;;;;;;;25.07;31.22;95332.31;4985380;28;20069;-59
2022/01/19 02:09:58;;;;;;;8.27;2.42;;;;;;;25.09;31.06;95330.19;4984624;28;20046;-59
2022/01/19 02:23:43;;;;;;;11.55;2.47;;;;;;;25.03;31.05;95307.31;4987959;28;20041;-59
2022/01/19 02:26:19;;;;;;;10.43;2.97;;;;;;;25.04;31.17;95296.41;4975907;28;20040;-59
2022/01/19 02:42:38;;;;;;;13.40;2.65;;;;;;;25.07;30.91;95279.09;4999986;28;20091;-59
2022/01/19 02:50:32;;;;;;;11.48;2.35;;;;;;;25.05;30.96;95279.38;4990887;28;20068;-59
2022/01/19 02:53:01;;;;;;;11.32;2.60;;;;;;;25.10;30.92;95286.56;4994909;28;20097;-59
2022/01/19 02:55:26;;;;;;;12.68;2.50;;;;;;;25.09;30.84;95275.13;4997492;28;20042;-59
2022/01/19 02:58:04;;;;;;;8.23;2.50;;;;;;;25.08;31.25;95275.38;4991594;28;20060;-59
2022/01/19 03:09:03;;;;;;;7.70;2.25;;;;;;;25.11;31.00;95250.88;5011430;28;20049;-59
2022/01/19 03:11:28;;;;;;;12.73;2.53;;;;;;;25.08;30.91;95248.78;4991542;28;20052;-59
2022/01/19 03:13:54;;;;;;;8.23;2.17;;;;;;;25.07;30.62;95250.63;4990622;28;20049;-59
2022/01/19 03:16:27;;;;;;;10.80;2.15;;;;;;;25.05;30.95;95247.44;4975271;28;20050;-59
2022/01/19 03:18:55;;;;;;;8.68;2.50;;;;;;;25.05;30.84;95251.97;5010555;28;20038;-59
2022/01/19 03:21:22;;;;;;;9.77;2.17;;;;;;;25.01;30.88;95241.06;5007763;28;20125;-59
2022/01/19 03:23:48;;;;;;;7.63;2.20;;;;;;;25.07;30.83;95252.50;4989909;28;20069;-59
2022/01/19 03:26:13;;;;;;;10.07;2.10;;;;;;;25.05;31.01;95246.63;5000027;28;20072;-59
2022/01/19 03:28:41;;;;;;;8.30;2.38;;;;;;;25.07;30.98;95249.81;5002451;28;20098;-59
2022/01/19 03:31:06;;;;;;;9.27;2.25;;;;;;;25.04;30.71;95253.03;4980087;28;20034;-59
2022/01/19 03:33:32;;;;;;;10.65;2.35;;;;;;;25.05;30.60;95243.97;4976288;28;20076;-59
2022/01/19 03:36:04;;;;;;;9.20;2.25;;;;;;;25.05;31.06;95249.28;5004075;28;20042;-59
2022/01/19 03:38:31;;;;;;;7.20;1.90;;;;;;;25.04;30.50;95240.53;4990393;28;20049;-59
2022/01/19 03:40:58;;;;;;;10.80;2.50;;;;;;;24.97;30.82;95238.13;4998829;28;20036;-59
2022/01/19 03:43:25;;;;;;;6.38;2.13;;;;;;;25.00;31.22;95231.50;4994308;28;20075;-59
2022/01/19 03:45:57;;;;;;;11.60;2.22;;;;;;;25.05;30.66;95233.34;4999404;28;20049;-59
2022/01/19 03:48:44;;;;;;;6.15;2.03;;;;;;;25.06;30.93;95229.63;5005496;28;20042;-59
2022/01/19 03:51:09;;;;;;;6.45;1.98;;;;;;;25.05;30.91;95231.47;4998775;28;20034;-59
2022/01/19 03:53:40;;;;;;;7.55;2.15;;;;;;;25.00;30.85;95228.00;4988698;28;20103;-59
2022/01/19 03:56:06;;;;;;;5.95;2.08;;;;;;;25.03;30.70;95227.47;4989928;28;20089;-59
2022/01/19 03:58:31;;;;;;;6.50;2.10;;;;;;;25.04;30.91;95227.22;4973405;28;20034;-59
2022/01/19 04:00:58;;;;;;;11.88;2.33;;;;;;;25.06;30.76;95229.63;4993327;28;20034;-59
2022/01/19 04:06:21;;;;;;;5.00;1.80;;;;;;;25.08;30.70;95219.50;5029092;28;20141;-59
2022/01/19 04:08:47;;;;;;;5.57;1.98;;;;;;;25.01;30.57;95217.09;4999344;28;20224;-60
2022/01/19 04:11:26;;;;;;;6.53;2.00;;;;;;;25.02;30.69;95212.56;5015602;28;20050;-59
2022/01/19 04:16:32;;;;;;;7.80;2.33;;;;;;;25.00;30.80;95209.38;5008991;28;20041;-59
2022/01/19 04:19:43;;;;;;;5.28;1.77;;;;;;;25.04;30.84;95208.59;4976404;28;20025;-59
2022/01/19 04:21:46;;;;;;;6.68;2.08;;;;;;;25.06;30.69;95213.66;5008756;28;20053;-59
2022/01/19 04:24:17;;;;;;;6.03;2.08;;;;;;;25.03;30.97;95212.31;5005782;28;20116;-59
2022/01/19 04:26:44;;;;;;;7.28;2.00;;;;;;;25.05;30.62;95212.03;5014883;28;20037;-60
2022/01/19 04:29:12;;;;;;;7.20;2.10;;;;;;;24.99;30.38;95203.28;5031132;28;20473;-59
2022/01/19 04:31:40;;;;;;;6.50;1.88;;;;;;;25.01;30.63;95211.00;5018604;28;20045;-60
2022/01/19 04:34:07;;;;;;;4.13;1.85;;;;;;;24.98;30.79;95209.69;4991825;28;20044;-59
2022/01/19 05:05:59;;;;;;;7.70;2.15;;;;;;;24.98;30.61;95191.84;4944636;28;20045;-59
2022/01/19 05:13:58;;;;;;;5.28;1.92;;;;;;;24.95;30.63;95188.91;4947017;28;20130;-60
2022/01/19 05:16:24;;;;;;;3.60;1.80;;;;;;;24.97;30.23;95190.22;4974888;28;20067;-59
2022/01/19 05:18:50;;;;;;;4.03;1.70;;;;;;;24.95;30.23;95186.25;4995072;28;20028;-60
2022/01/19 05:21:19;;;;;;;6.00;2.00;;;;;;;24.91;30.60;95183.34;4987239;28;20033;-59
2022/01/19 05:23:44;;;;;;;6.85;1.95;;;;;;;24.97;30.38;95189.44;4987959;28;20069;-60
2022/01/19 05:26:12;;;;;;;5.07;1.60;;;;;;;25.01;30.34;95189.69;4995150;28;20088;-59
2022/01/19 05:28:47;;;;;;;4.95;2.10;;;;;;;24.96;30.16;95175.34;4981685;28;20033;-59
2022/01/19 05:31:17;;;;;;;5.32;1.70;;;;;;;24.94;30.60;95172.16;5003055;28;20117;-59
2022/01/19 05:33:43;;;;;;;;;;;;;;;25.43;29.94;95183.22;5007337;28;20169;-59
2022/01/19 05:36:09;;;;;;;6.38;1.98;;;;;;;25.10;29.37;95172.91;4976247;28;19921;-59
2022/01/19 05:38:34;;;;;;;5.57;2.10;;;;;;;25.05;29.62;95158.81;4986691;28;20026;-59
2022/01/19 05:41:00;;;;;;;5.28;1.80;;;;;;;25.04;28.93;95171.34;4987983;28;20034;-59
2022/01/19 05:43:41;;;;;;;5.45;1.92;;;;;;;25.04;29.55;95167.88;4998228;28;20045;-59
2022/01/19 05:46:06;;;;;;;5.55;1.83;;;;;;;25.02;29.96;95162.00;4996554;28;20038;-59
2022/01/19 05:48:34;;;;;;;5.40;2.00;;;;;;;25.00;29.90;95159.66;4976548;28;20038;-59
2022/01/19 05:50:59;;;;;;;4.55;1.70;;;;;;;25.00;29.25;95150.84;4995551;28;20039;-59
2022/01/19 05:53:25;;;;;;;5.72;1.77;;;;;;;25.00;29.57;95148.19;4980903;28;20029;-59
2022/01/19 05:55:50;;;;;;;7.82;2.28;;;;;;;24.98;29.65;95151.13;4965512;28;20034;-59
2022/01/19 05:58:18;;;;;;;5.95;2.15;;;;;;;25.02;29.23;95154.03;5002660;28;20033;-59
2022/01/19 06:00:43;;;;;;;5.03;2.17;;;;;;;25.00;28.96;95161.50;4987610;28;20041;-59
2022/01/19 06:03:18;;;;;;;3.97;1.77;;;;;;;24.97;29.02;95168.94;4994627;28;20026;-58
2022/01/19 06:05:44;;;;;;;5.15;1.92;;;;;;;24.99;29.42;95166.03;4985808;28;20045;-59
2022/01/19 06:10:54;;;;;;;10.30;2.03;;;;;;;25.00;29.35;95150.84;5005906;28;20140;-59
2022/01/19 06:13:20;;;;;;;3.03;1.85;;;;;;;25.04;29.16;95160.69;4998405;28;20129;-59
2022/01/19 06:15:55;;;;;;;4.65;1.80;;;;;;;25.02;29.19;95152.19;4994953;28;20042;-59
2022/01/19 06:18:25;;;;;;;5.38;1.80;;;;;;;25.03;29.27;95159.09;4992007;28;20124;-59
2022/01/19 06:20:53;;;;;;;5.53;1.80;;;;;;;25.06;29.08;95155.91;4991990;28;20045;-59
2022/01/19 06:23:20;;;;;;;3.88;1.90;;;;;;;25.01;29.32;95150.59;4968310;28;20052;-59
2022/01/19 06:25:49;;;;;;;6.13;1.80;;;;;;;24.95;29.29;95141.03;4991615;28;20030;-59
2022/01/19 06:28:17;;;;;;;6.72;1.70;;;;;;;25.00;29.18;95148.19;4994071;28;20046;-59
2022/01/19 06:30:51;;;;;;;7.50;2.65;;;;;;;24.97;28.98;95141.56;4994803;28;20033;-59
2022/01/19 06:33:17;;;;;;;8.10;2.40;;;;;;;24.99;28.91;95144.72;5000947;28;20034;-59
2022/01/19 06:35:43;;;;;;;8.60;2.22;;;;;;;25.01;29.05;95144.47;4977288;28;20026;-59
2022/01/19 06:38:09;;;;;;;6.10;2.28;;;;;;;24.97;29.25;95147.66;5006443;28;20033;-59
2022/01/19 06:40:34;;;;;;;8.43;2.60;;;;;;;24.94;29.12;95137.56;4998346;28;20041;-59
2022/01/19 06:43:03;;;;;;;8.55;2.70;;;;;;;24.94;29.29;95134.91;4982646;28;20034;-60
2022/01/19 06:45:30;;;;;;;11.95;4.30;;;;;;;24.98;28.40;95143.94;5005773;28;20038;-60
2022/01/19 06:48:05;;;;;;;11.65;4.85;;;;;;;24.99;28.43;95136.75;4998287;28;20026;-60
2022/01/19 06:50:31;;;;;;;8.98;3.13;;;;;;;24.96;28.38;95134.66;4996945;28;20036;-58
2022/01/19 06:52:57;;;;;;;8.93;3.20;;;;;;;24.94;28.87;95131.44;4999038;28;20038;-58
2022/01/19 06:55:24;;;;;;;6.28;2.60;;;;;;;24.95;29.03;95128.50;5017617;28;20060;-58
2022/01/19 06:57:51;;;;;;;9.10;2.70;;;;;;;24.92;29.16;95134.38;4996964;28;20034;-58
2022/01/19 07:00:19;;;;;;;8.45;3.03;;;;;;;24.87;29.35;95137.06;5003039;28;20034;-58
2022/01/19 07:02:47;;;;;;;7.85;2.55;;;;;;;24.87;29.19;95137.06;4992760;28;20030;-58
2022/01/19 07:05:15;;;;;;;11.40;2.50;;;;;;;24.87;29.40;95141.59;4994177;28;20034;-59
2022/01/19 07:07:41;;;;;;;9.07;4.07;;;;;;;24.83;29.37;95140.50;4997867;28;20038;-59
2022/01/19 07:10:07;;;;;;;8.57;5.65;;;;;;;24.88;28.56;95137.84;4997067;28;20065;-58
2022/01/19 07:12:35;;;;;;;9.82;6.50;;;;;;;24.88;27.87;95145.81;5008084;28;20058;-58
2022/01/19 07:15:01;;;;;;;10.48;5.70;;;;;;;24.83;28.11;95136.00;4987113;28;20084;-58
2022/01/19 07:17:29;;;;;;;7.72;4.88;;;;;;;24.83;28.14;95133.34;4991656;28;20058;-58
2022/01/19 07:19:54;;;;;;;9.20;4.55;;;;;;;24.84;28.03;95137.59;4993862;28;20048;-59
2022/01/19 07:22:26;;;;;;;5.88;4.18;;;;;;;24.78;28.53;95133.34;4996224;28;20042;-59
2022/01/19 07:24:54;;;;;;;10.20;4.57;;;;;;;24.80;28.63;95131.22;4997611;28;20119;-59
2022/01/19 07:27:19;;;;;;;8.48;4.60;;;;;;;24.84;28.32;95142.13;4995084;28;20027;-59
2022/01/19 07:29:46;;;;;;;5.53;3.78;;;;;;;24.81;28.61;95137.31;4994437;28;20107;-59
2022/01/19 07:32:12;;;;;;;7.82;3.55;;;;;;;24.78;28.94;95136.78;4996106;28;20038;-59
2022/01/19 07:34:38;;;;;;;5.85;3.42;;;;;;;24.79;28.73;95140.28;4994279;28;20034;-58
2022/01/19 07:37:03;;;;;;;5.60;3.10;;;;;;;24.80;28.88;95133.88;4997404;28;20037;-58
2022/01/19 07:39:49;;;;;;;6.38;3.17;;;;;;;24.84;29.32;95142.91;4984604;28;20061;-59
2022/01/19 07:42:15;;;;;;;6.60;2.90;;;;;;;24.85;29.26;95143.72;5022995;28;20041;-59
2022/01/19 07:44:41;;;;;;;4.40;3.05;;;;;;;24.87;29.23;95142.38;5046113;28;20032;-59
2022/01/19 07:47:06;;;;;;;5.93;2.97;;;;;;;24.89;29.70;95150.88;4981875;28;20122;-59
2022/01/19 07:49:36;;;;;;;6.00;2.45;;;;;;;24.86;29.64;95137.31;5004537;28;20045;-59
2022/01/19 07:52:04;;;;;;;5.83;2.77;;;;;;;24.89;29.65;95137.56;4979112;28;20050;-59
2022/01/19 07:54:35;;;;;;;4.40;2.50;;;;;;;24.84;30.15;95134.13;4994002;28;20275;-59
2022/01/19 07:57:01;;;;;;;6.03;2.60;;;;;;;24.83;29.90;95136.00;4987338;28;20041;-59
2022/01/19 07:59:26;;;;;;;4.18;2.38;;;;;;;24.84;29.95;95136.78;4985583;28;20045;-59
2022/01/19 08:01:56;;;;;;;5.70;2.30;;;;;;;24.85;30.15;95138.41;4977459;28;20147;-59
2022/01/19 08:04:22;;;;;;;6.57;2.37;;;;;;;24.84;29.93;95140.25;4964964;28;20136;-59
2022/01/19 08:06:53;;;;;;;3.90;2.60;;;;;;;24.85;30.27;95128.53;4995356;28;20280;-59
2022/01/19 08:09:31;;;;;;;3.35;2.45;;;;;;;24.86;30.23;95134.66;4971313;28;20061;-59
2022/01/19 08:11:57;;;;;;;5.63;2.55;;;;;;;24.86;30.12;95134.66;4997119;28;20129;-59
2022/01/19 08:14:24;;;;;;;4.85;2.63;;;;;;;24.80;30.25;95131.22;4976743;28;20125;-60
2022/01/19 08:16:59;;;;;;;5.88;2.58;;;;;;;24.80;30.08;95125.88;4960074;28;20169;-59
2022/01/19 08:19:25;;;;;;;6.10;2.60;;;;;;;24.84;30.55;95123.50;5002842;28;20068;-59
2022/01/19 08:21:53;;;;;;;6.97;2.80;;;;;;;24.87;30.02;95131.72;4993226;28;20113;-59
2022/01/19 08:24:24;;;;;;;4.10;2.08;;;;;;;24.81;30.02;95124.03;4995353;28;20042;-59
2022/01/19 08:26:49;;;;;;;5.38;2.47;;;;;;;24.87;30.33;95126.41;4996199;28;20039;-59
2022/01/19 08:29:14;;;;;;;4.50;2.50;;;;;;;24.88;30.51;95119.22;4997182;28;20092;-59
2022/01/19 08:31:40;;;;;;;3.95;2.17;;;;;;;24.86;30.15;95122.16;4993705;28;20045;-59
2022/01/19 08:34:06;;;;;;;5.50;2.13;;;;;;;24.87;30.33;95115.78;4998611;28;20034;-59
2022/01/19 08:36:34;;;;;;;6.07;2.45;;;;;;;24.83;30.28;95125.38;5008476;28;20057;-59
2022/01/19 08:39:00;;;;;;;3.33;2.10;;;;;;;24.86;30.30;95119.47;4998600;28;20030;-59
2022/01/19 08:41:28;;;;;;;6.53;2.35;;;;;;;24.80;30.75;95115.25;4998237;28;20038;-59
2022/01/19 08:43:57;;;;;;;3.40;2.20;;;;;;;24.82;30.61;95123.75;5004884;28;20073;-59
2022/01/19 08:46:23;;;;;;;3.97;2.00;;;;;;;24.83;30.56;95122.69;4992324;28;20108;-59
2022/01/19 08:48:51;;;;;;;5.18;2.08;;;;;;;24.88;30.47;95121.88;4990242;28;20035;-59
2022/01/19 08:51:22;;;;;;;3.78;2.15;;;;;;;24.87;30.53;95129.06;4988769;28;20036;-59
2022/01/19 08:53:48;;;;;;;3.58;2.22;;;;;;;24.89;30.86;95126.94;4996354;28;20041;-60
2022/01/19 08:56:14;;;;;;;5.07;2.33;;;;;;;24.84;30.85;95126.16;5001928;28;20038;-60
2022/01/19 08:58:51;;;;;;;7.57;2.33;;;;;;;24.84;30.78;95129.59;4999038;28;20038;-59
2022/01/19 09:01:16;;;;;;;4.03;2.40;;;;;;;24.92;30.45;95128.25;4996861;28;20049;-60
2022/01/19 09:03:42;;;;;;;8.85;2.70;;;;;;;24.93;30.40;95128.00;4978243;28;20034;-59
2022/01/19 09:06:07;;;;;;;4.63;2.40;;;;;;;24.95;30.57;95133.03;4995026;28;20034;-59
2022/01/19 09:08:34;;;;;;;7.13;2.28;;;;;;;24.94;30.66;95132.25;4994822;28;20030;-59
2022/01/19 09:11:00;;;;;;;4.60;2.22;;;;;;;24.89;30.59;95134.91;5004530;28;20030;-59
2022/01/19 09:13:26;;;;;;;5.80;2.38;;;;;;;24.91;30.88;95132.00;4994695;28;20085;-59
2022/01/19 09:16:01;;;;;;;4.78;2.20;;;;;;;24.92;30.82;95139.72;4996884;28;20079;-59
2022/01/19 09:18:46;;;;;;;6.90;2.58;;;;;;;24.92;30.96;95136.22;5038639;28;20396;-58
2022/01/19 09:21:14;;;;;;;5.97;2.40;;;;;;;24.89;31.06;95134.91;5039885;28;20049;-58
2022/01/19 09:23:40;;;;;;;4.88;2.28;;;;;;;24.90;30.74;95141.84;5071224;28;20068;-58
2022/01/19 09:26:05;;;;;;;6.00;2.53;;;;;;;24.90;30.70;95131.19;5027952;28;20033;-58
2022/01/19 09:28:46;;;;;;;3.67;2.85;;;;;;;24.90;30.79;95136.53;5020514;28;20037;-58
2022/01/19 09:31:13;;;;;;;6.65;2.10;;;;;;;24.92;30.97;95145.03;5039341;28;20041;-58
2022/01/19 09:33:43;;;;;;;4.47;2.10;;;;;;;24.88;30.70;95148.47;5038233;28;20029;-58
2022/01/19 09:36:30;;;;;;;6.90;2.08;;;;;;;24.91;30.92;95147.97;5026370;28;20039;-58
2022/01/19 09:39:05;;;;;;;6.43;2.63;;;;;;;24.90;30.96;95152.50;5032994;28;20032;-58
2022/01/19 09:41:33;;;;;;;7.07;2.60;;;;;;;24.90;31.08;95149.00;5042043;28;20069;-58
2022/01/19 09:43:58;;;;;;;6.22;2.17;;;;;;;24.91;31.17;95153.28;5057661;28;20040;-60
2022/01/19 09:46:29;;;;;;;6.45;2.25;;;;;;;24.88;31.03;95141.28;5018020;28;20029;-60
2022/01/19 09:48:58;;;;;;;6.30;2.30;;;;;;;24.90;30.98;95152.50;5069820;28;20037;-60
2022/01/19 09:51:23;;;;;;;5.13;2.10;;;;;;;24.93;30.85;95140.50;5041976;28;20025;-60
2022/01/19 09:53:54;;;;;;;7.40;1.90;;;;;;;24.87;31.23;95139.72;5044439;28;20128;-60
2022/01/19 09:56:22;;;;;;;6.35;2.50;;;;;;;24.93;30.83;95143.16;5036806;28;20068;-60
2022/01/19 09:58:49;;;;;;;4.70;2.20;;;;;;;24.88;31.26;95135.97;5031416;28;20033;-60
2022/01/19 10:01:19;;;;;;;5.15;2.28;;;;;;;24.87;31.00;95131.72;5037594;28;20033;-60
2022/01/19 10:03:56;;;;;;;4.90;2.40;;;;;;;24.92;31.46;95134.38;5036292;28;20041;-60
2022/01/19 10:06:34;;;;;;;7.20;2.70;;;;;;;24.90;31.49;95123.22;5035408;28;20040;-59
2022/01/19 10:09:01;;;;;;;8.23;2.45;;;;;;;24.92;31.15;95115.75;5029461;28;20021;-59
2022/01/19 10:17:06;;;;;;;7.10;1.98;;;;;;;24.96;31.06;95108.84;5029182;28;20087;-60
2022/01/19 10:19:42;;;;;;;4.38;2.10;;;;;;;24.91;31.16;95106.19;5022048;28;20045;-60
2022/01/19 10:22:12;;;;;;;4.38;2.17;;;;;;;24.94;31.29;95108.31;5059923;28;20037;-60
2022/01/19 10:24:54;;;;;;;4.25;2.33;;;;;;;24.96;30.81;95098.19;5049834;28;20041;-60
2022/01/19 10:27:27;;;;;;;6.38;2.22;;;;;;;24.94;31.00;95092.34;5047759;28;20264;-60
2022/01/19 10:30:08;;;;;;;3.85;2.20;;;;;;;24.95;30.99;95093.91;5044880;28;20128;-60
2022/01/19 10:32:35;;;;;;;;;;;;;;;25.48;30.33;95092.69;5026968;28;20029;-60
2022/01/19 10:35:29;;;;;;;4.80;2.20;;;;;;;25.13;30.75;95097.03;5024994;28;19985;-60
2022/01/19 10:38:27;;;;;;;8.40;2.42;;;;;;;25.13;30.62;95097.03;5024326;28;20040;-61
2022/01/19 10:41:01;;;;;;;4.05;2.40;;;;;;;25.00;30.88;95095.78;4990411;28;20050;-60
2022/01/19 10:43:55;;;;;;;4.72;2.30;;;;;;;25.15;30.87;95089.59;5005799;28;20045;-61
2022/01/19 10:46:31;;;;;;;5.97;2.22;;;;;;;24.95;31.05;95085.94;4981390;28;20045;-60
2022/01/19 10:49:05;;;;;;;6.45;2.10;;;;;;;24.95;31.15;95077.97;4989431;28;20041;-60
2022/01/19 10:51:33;;;;;;;4.72;2.20;;;;;;;24.97;31.29;95078.47;5005432;28;20072;-60
2022/01/19 10:54:13;;;;;;;3.33;2.20;;;;;;;24.97;31.61;95075.81;4994031;28;20130;-60
2022/01/19 10:56:39;;;;;;;4.70;2.30;;;;;;;25.04;31.51;95069.44;5014759;28;20037;-60
2022/01/19 10:59:09;;;;;;;3.70;2.00;;;;;;;24.97;31.54;95062.50;5004171;28;20180;-60
2022/01/19 11:01:55;;;;;;;5.28;2.40;;;;;;;25.08;31.49;95062.50;4989638;28;20064;-60
2022/01/19 11:04:31;;;;;;;3.65;2.30;;;;;;;25.04;31.60;95064.91;4987595;28;20048;-60
2022/01/19 11:07:05;;;;;;;5.15;2.30;;;;;;;25.03;31.64;95062.50;5003672;28;20123;-60
2022/01/19 11:09:57;;;;;;;3.28;2.28;;;;;;;24.98;32.35;95061.47;5017106;28;20064;-61
2022/01/19 11:12:29;;;;;;;5.22;2.35;;;;;;;25.04;31.96;95053.47;5014578;28;20046;-61
2022/01/19 11:14:54;;;;;;;3.08;2.28;;;;;;;25.06;32.19;95044.13;4972910;28;20038;-60
2022/01/19 11:17:20;;;;;;;5.57;2.22;;;;;;;25.08;32.33;95049.97;5016315;28;20115;-61
2022/01/19 11:19:45;;;;;;;5.47;2.67;;;;;;;25.09;32.10;95045.44;5016629;28;20041;-61
2022/01/19 11:22:48;;;;;;;5.43;2.75;;;;;;;25.17;32.59;95047.56;5017236;28;20033;-60
2022/01/19 11:25:48;;;;;;;7.55;3.13;;;;;;;25.14;32.90;95040.09;5018319;28;20065;-60
2022/01/19 11:28:32;;;;;;;5.80;2.72;;;;;;;25.15;32.98;95031.03;5026165;28;20041;-61
2022/01/19 11:30:59;;;;;;;4.03;2.63;;;;;;;25.11;32.98;95038.78;5025229;28;20041;-60
2022/01/19 11:33:27;;;;;;;6.32;2.40;;;;;;;25.08;33.11;95028.69;5052677;28;20036;-60
2022/01/19 11:36:19;;;;;;;5.13;2.60;;;;;;;25.13;33.25;95017.22;5010381;28;20037;-60
2022/01/19 11:38:46;;;;;;;5.57;2.83;;;;;;;25.18;33.15;95017.19;5019996;28;20061;-60
2022/01/19 11:41:18;;;;;;;6.55;2.78;;;;;;;25.16;33.05;95025.44;5022362;28;20075;-60
2022/01/19 11:43:52;;;;;;;8.57;2.72;;;;;;;25.19;33.43;95016.13;5026108;28;20033;-60
2022/01/19 11:46:27;;;;;;;6.22;2.50;;;;;;;25.21;33.66;95014.00;5023639;28;20088;-60
2022/01/19 11:48:53;;;;;;;6.68;2.63;;;;;;;25.26;33.42;95021.97;5045923;28;20041;-60
2022/01/19 11:51:26;;;;;;;4.43;2.30;;;;;;;25.30;32.98;95011.56;5049238;28;20038;-60
2022/01/19 11:54:28;;;;;;;4.32;2.42;;;;;;;25.30;33.15;95015.03;5024150;28;20120;-60
2022/01/19 11:57:04;;;;;;;6.50;2.17;;;;;;;25.28;33.44;95013.69;5017499;28;20033;-60
2022/01/19 11:59:51;;;;;;;4.47;2.40;;;;;;;25.25;33.14;95016.94;5040891;28;20033;-61
2022/01/19 12:02:33;;;;;;;7.32;2.15;;;;;;;25.27;33.74;95006.81;5023181;28;20080;-60
2022/01/19 12:04:58;;;;;;;9.60;2.95;;;;;;;25.26;33.70;94999.88;5022510;28;20108;-60
2022/01/19 12:07:52;;;;;;;12.77;2.63;;;;;;;25.25;33.59;94992.97;5016391;28;20109;-60
2022/01/19 12:10:22;;;;;;;9.55;2.60;;;;;;;25.23;33.84;94990.59;5018489;28;20043;-60
2022/01/19 12:13:35;;;;;;;8.60;2.80;;;;;;;25.44;33.44;94991.25;5039194;28;20068;-61
2022/01/19 12:18:54;;;;;;;9.65;2.90;;;;;;;25.33;33.37;94982.53;5028664;28;20056;-60
2022/01/19 12:21:32;;;;;;;9.15;2.20;;;;;;;25.37;33.71;94985.44;5016793;28;20047;-61
2022/01/19 12:24:26;;;;;;;9.73;2.53;;;;;;;25.40;33.50;94979.56;5035288;28;20048;-61
2022/01/19 12:27:08;;;;;;;6.40;2.15;;;;;;;25.40;33.92;94968.09;5023090;28;20036;-60
2022/01/19 12:29:33;;;;;;;6.07;2.65;;;;;;;25.41;33.65;94967.03;5035175;28;20047;-60
2022/01/19 12:32:03;;;;;;;7.60;2.70;;;;;;;25.40;33.43;94963.59;5034974;28;20041;-60
2022/01/19 12:34:44;;;;;;;8.07;2.47;;;;;;;25.46;33.39;94961.69;5011602;28;20116;-60
2022/01/19 12:37:13;;;;;;;6.75;2.60;;;;;;;25.46;33.14;94956.38;5024196;28;20152;-60
2022/01/19 12:39:41;;;;;;;6.88;2.58;;;;;;;25.47;33.02;94948.06;5004268;28;20045;-60
2022/01/19 12:42:17;;;;;;;6.07;2.95;;;;;;;25.48;32.75;94943.56;5015653;28;20049;-60
2022/01/19 12:44:57;;;;;;;7.70;2.97;;;;;;;25.52;32.65;94937.38;5024712;28;20072;-60
2022/01/19 12:47:30;;;;;;;6.82;3.40;;;;;;;25.52;32.33;94939.25;5019497;28;20115;-60
2022/01/19 12:50:19;;;;;;;9.32;3.83;;;;;;;25.65;31.75;94945.81;5028777;28;20068;-59
2022/01/19 12:52:45;;;;;;;7.47;3.58;;;;;;;25.57;31.94;94936.56;5016426;28;20033;-60
2022/01/19 12:55:19;;;;;;;12.45;3.50;;;;;;;25.54;31.55;94931.78;5018878;28;20114;-60
2022/01/19 12:57:45;;;;;;;8.27;3.10;;;;;;;25.58;31.89;94922.16;5042055;28;20032;-60
2022/01/19 13:00:13;;;;;;;11.35;3.38;;;;;;;25.58;31.55;94922.16;5015215;28;20068;-60
2022/01/19 13:02:48;;;;;;;8.05;3.50;;;;;;;25.60;31.21;94925.34;5020272;28;20040;-60
2022/01/19 13:05:17;;;;;;;8.02;3.40;;;;;;;25.61;31.59;94921.63;5043080;28;20029;-60
2022/01/19 13:07:59;;;;;;;9.23;2.95;;;;;;;25.66;31.06;94918.09;5012806;28;20098;-60
2022/01/19 13:10:38;;;;;;;8.75;3.05;;;;;;;25.66;31.64;94913.56;5024391;28;20041;-60
2022/01/19 13:15:43;;;;;;;6.80;2.80;;;;;;;25.67;31.75;94914.38;5030809;28;20065;-60
2022/01/19 13:18:12;;;;;;;7.20;2.60;;;;;;;25.67;31.38;94922.38;5040488;28;20034;-60
2022/01/19 13:20:53;;;;;;;4.70;2.67;;;;;;;25.72;31.79;94920.44;5006959;28;20092;-60
2022/01/19 13:23:19;;;;;;;5.53;2.78;;;;;;;25.68;31.52;94913.28;5021344;28;20033;-60
2022/01/19 13:25:55;;;;;;;6.13;2.60;;;;;;;25.72;31.73;94912.47;5005713;28;20034;-60
2022/01/19 13:28:30;;;;;;;4.30;2.28;;;;;;;25.69;31.57;94906.91;5024178;28;20045;-60